createdAt,value
2018-03-11T00:02:04.059Z,24.57
2018-03-11T00:04:33.140Z,23.57
2018-03-11T00:07:02.346Z,25.87
2018-03-11T00:09:31.449Z,23.23
2018-03-11T00:12:00.813Z,21.80
2018-03-11T00:14:30.053Z,22.27
2018-03-11T00:16:59.033Z,22.90
2018-03-11T00:19:28.307Z,21.33
2018-03-11T00:21:57.744Z,22.43
2018-03-11T00:24:26.972Z,22.33
2018-03-11T00:26:56.413Z,23.33
2018-03-11T00:29:25.593Z,23.23
2018-03-11T00:31:54.744Z,22.43
2018-03-11T00:34:24.121Z,20.13
2018-03-11T00:36:53.289Z,21.67
2018-03-11T00:39:22.608Z,20.93
2018-03-11T00:41:51.849Z,20.10
2018-03-11T00:44:21.571Z,21.30
2018-03-11T00:46:50.608Z,21.20
2018-03-11T00:49:19.853Z,21.57
2018-03-11T00:51:49.053Z,17.77
2018-03-11T00:54:18.263Z,15.37
2018-03-11T00:56:47.406Z,14.30
2018-03-11T00:59:16.406Z,15.27
2018-03-11T01:01:45.638Z,18.10
2018-03-11T01:04:15.055Z,19.97
2018-03-11T01:06:44.347Z,19.57
2018-03-11T01:09:13.678Z,21.17
2018-03-11T01:11:42.711Z,21.03
2018-03-11T01:14:11.754Z,22.07
2018-03-11T01:16:40.985Z,17.90
2018-03-11T01:19:10.381Z,19.13
2018-03-11T01:21:39.637Z,17.53
2018-03-11T01:24:08.920Z,18.30
2018-03-11T01:26:38.555Z,17.90
2018-03-11T01:29:07.797Z,15.37
2018-03-11T01:31:36.775Z,12.43
2018-03-11T01:34:05.833Z,12.97
2018-03-11T01:36:35.137Z,12.77
2018-03-11T01:39:04.418Z,11.67
2018-03-11T01:41:33.632Z,12.53
2018-03-11T01:44:03.151Z,13.67
2018-03-11T01:46:32.566Z,14.20
2018-03-11T01:49:01.845Z,10.13
2018-03-11T01:51:31.177Z,10.73
2018-03-11T01:54:00.465Z,10.17
2018-03-11T01:56:29.704Z,8.93
2018-03-11T01:58:58.961Z,9.40
2018-03-11T02:01:28.191Z,9.00
2018-03-11T02:03:57.505Z,9.20
2018-03-11T02:06:26.755Z,9.47
2018-03-11T02:08:56.181Z,10.33
2018-03-11T02:11:25.554Z,11.17
2018-03-11T02:13:54.854Z,11.43
2018-03-11T02:16:24.163Z,12.70
2018-03-11T02:18:53.369Z,12.93
2018-03-11T02:21:22.584Z,14.50
2018-03-11T02:23:51.862Z,14.37
2018-03-11T02:26:21.163Z,13.00
2018-03-11T02:28:50.553Z,12.17
2018-03-11T02:31:19.919Z,12.57
2018-03-11T02:33:49.423Z,10.50
2018-03-11T02:36:20.619Z,10.60
2018-03-11T02:38:49.989Z,10.60
2018-03-11T02:41:19.618Z,9.67
2018-03-11T02:43:48.728Z,9.73
2018-03-11T02:46:17.671Z,10.50
2018-03-11T02:48:46.772Z,9.17
2018-03-11T02:51:15.996Z,10.70
2018-03-11T02:53:45.190Z,10.87
2018-03-11T02:56:14.605Z,11.53
2018-03-11T02:58:43.941Z,11.20
2018-03-11T03:01:13.223Z,12.43
2018-03-11T03:03:42.969Z,13.00
2018-03-11T03:06:12.551Z,12.53
2018-03-11T03:08:42.080Z,12.00
2018-03-11T03:11:11.275Z,13.00
2018-03-11T03:13:40.432Z,13.23
2018-03-11T03:16:09.937Z,13.17
2018-03-11T03:18:39.233Z,13.33
2018-03-11T03:21:08.473Z,12.93
2018-03-11T03:23:38.055Z,11.87
2018-03-11T03:26:07.247Z,12.47
2018-03-11T03:28:36.673Z,11.83
2018-03-11T03:31:06.220Z,11.30
2018-03-11T03:33:35.513Z,10.40
2018-03-11T03:36:04.810Z,10.70
2018-03-11T03:38:34.323Z,11.00
2018-03-11T03:41:03.293Z,11.20
2018-03-11T03:43:32.753Z,11.27
2018-03-11T03:46:02.262Z,9.90
2018-03-11T03:48:31.670Z,10.40
2018-03-11T03:51:00.757Z,10.70
2018-03-11T03:53:30.311Z,10.73
2018-03-11T03:55:59.497Z,11.60
2018-03-11T03:58:28.491Z,10.80
2018-03-11T04:00:57.705Z,10.40
2018-03-11T04:03:27.217Z,15.17
2018-03-11T04:05:56.325Z,12.63
2018-03-11T04:08:26.403Z,10.77
2018-03-11T04:10:55.437Z,11.80
2018-03-11T04:13:24.500Z,11.50
2018-03-11T04:15:54.035Z,11.83
2018-03-11T04:18:23.751Z,11.20
2018-03-11T04:20:53.037Z,11.93
2018-03-11T04:23:22.502Z,11.93
2018-03-11T04:25:51.750Z,12.00
2018-03-11T04:28:20.690Z,12.17
2018-03-11T04:30:50.078Z,12.43
2018-03-11T04:33:19.291Z,12.03
2018-03-11T04:35:48.751Z,12.10
2018-03-11T04:38:18.044Z,11.17
2018-03-11T04:40:47.744Z,10.57
2018-03-11T04:43:16.935Z,10.40
2018-03-11T04:45:46.449Z,11.37
2018-03-11T04:48:15.550Z,11.43
2018-03-11T04:50:45.380Z,11.20
2018-03-11T04:53:14.727Z,10.70
2018-03-11T04:55:43.969Z,10.70
2018-03-11T04:58:13.293Z,11.60
2018-03-11T05:03:23.954Z,10.47
2018-03-11T05:05:53.045Z,9.90
2018-03-11T05:08:22.065Z,10.07
2018-03-11T05:10:51.441Z,9.90
2018-03-11T05:13:20.834Z,10.17
2018-03-11T05:15:50.252Z,10.07
2018-03-11T05:18:19.403Z,10.43
2018-03-11T05:20:48.749Z,9.80
2018-03-11T05:23:18.366Z,10.47
2018-03-11T05:25:47.465Z,9.77
2018-03-11T05:28:16.853Z,10.60
2018-03-11T05:30:45.831Z,9.93
2018-03-11T05:33:15.092Z,9.53
2018-03-11T05:35:44.465Z,9.63
2018-03-11T05:38:13.565Z,9.47
2018-03-11T05:40:43.059Z,9.33
2018-03-11T05:43:12.802Z,10.63
2018-03-11T05:45:41.945Z,13.23
2018-03-11T05:48:10.906Z,14.27
2018-03-11T05:50:39.949Z,11.17
2018-03-11T05:53:09.389Z,9.73
2018-03-11T05:55:38.653Z,10.03
2018-03-11T05:58:07.767Z,9.77
2018-03-11T06:00:36.903Z,10.30
2018-03-11T06:03:05.977Z,9.03
2018-03-11T06:05:35.147Z,9.43
2018-03-11T06:08:04.447Z,9.73
2018-03-11T06:10:33.553Z,11.17
2018-03-11T06:13:02.837Z,11.23
2018-03-11T06:15:32.353Z,11.47
2018-03-11T06:18:01.488Z,10.67
2018-03-11T06:20:30.805Z,10.20
2018-03-11T06:22:59.990Z,11.33
2018-03-11T06:25:29.195Z,10.47
2018-03-11T06:27:58.650Z,13.03
2018-03-11T06:30:27.945Z,11.77
2018-03-11T06:32:57.041Z,10.83
2018-03-11T06:35:26.292Z,11.63
2018-03-11T06:37:55.745Z,11.57
2018-03-11T06:40:24.921Z,11.40
2018-03-11T06:42:53.966Z,10.10
2018-03-11T06:45:23.199Z,10.23
2018-03-11T06:47:52.595Z,10.50
2018-03-11T06:50:21.937Z,11.80
2018-03-11T06:52:51.400Z,10.63
2018-03-11T06:55:21.009Z,10.17
2018-03-11T06:57:50.310Z,9.47
2018-03-11T07:00:19.816Z,9.13
2018-03-11T07:02:49.261Z,9.60
2018-03-11T07:05:18.461Z,9.87
2018-03-11T07:07:47.664Z,10.10
2018-03-11T07:10:17.165Z,10.50
2018-03-11T07:12:46.481Z,20.63
2018-03-11T07:15:17.205Z,11.97
2018-03-11T07:17:46.509Z,10.17
2018-03-11T07:20:15.863Z,10.87
2018-03-11T07:22:45.054Z,11.17
2018-03-11T07:25:14.447Z,10.83
2018-03-11T07:27:43.581Z,10.37
2018-03-11T07:30:12.989Z,9.50
2018-03-11T07:32:42.186Z,9.90
2018-03-11T07:35:11.525Z,8.40
2018-03-11T07:37:40.798Z,8.17
2018-03-11T07:40:10.247Z,8.93
2018-03-11T07:42:39.811Z,7.90
2018-03-11T07:45:09.205Z,8.73
2018-03-11T07:47:38.772Z,7.53
2018-03-11T07:50:08.375Z,7.83
2018-03-11T07:52:37.670Z,7.70
2018-03-11T07:55:06.865Z,7.70
2018-03-11T07:57:35.909Z,7.00
2018-03-11T08:00:05.271Z,6.97
2018-03-11T08:02:34.575Z,6.77
2018-03-11T08:05:03.810Z,6.63
2018-03-11T08:07:33.123Z,7.07
2018-03-11T08:10:02.387Z,6.47
2018-03-11T08:12:31.728Z,6.40
2018-03-11T08:15:01.230Z,7.30
2018-03-11T08:17:30.669Z,7.90
2018-03-11T08:19:59.971Z,6.80
2018-03-11T08:22:29.441Z,6.53
2018-03-11T08:24:59.041Z,6.47
2018-03-11T08:27:28.363Z,19.57
2018-03-11T08:29:57.901Z,6.90
2018-03-11T08:32:27.350Z,9.67
2018-03-11T08:34:56.574Z,8.40
2018-03-11T08:37:25.689Z,7.47
2018-03-11T08:39:55.049Z,6.23
2018-03-11T08:42:24.453Z,8.30
2018-03-11T08:44:53.862Z,7.73
2018-03-11T08:47:23.418Z,6.87
2018-03-11T08:49:52.402Z,6.47
2018-03-11T08:52:21.761Z,6.63
2018-03-11T08:54:51.433Z,5.90
2018-03-11T08:57:20.683Z,6.53
2018-03-11T08:59:49.938Z,6.53
2018-03-11T09:02:19.090Z,12.87
2018-03-11T09:04:48.785Z,8.57
2018-03-11T09:07:18.061Z,5.50
2018-03-11T09:09:47.394Z,9.80
2018-03-11T09:12:16.795Z,5.43
2018-03-11T09:14:45.982Z,6.20
2018-03-11T09:17:15.251Z,5.23
2018-03-11T09:19:44.709Z,4.80
2018-03-11T09:22:14.410Z,4.50
2018-03-11T09:24:43.648Z,4.70
2018-03-11T09:27:12.833Z,4.33
2018-03-11T09:29:41.737Z,3.80
2018-03-11T09:32:10.895Z,4.23
2018-03-11T09:34:39.941Z,4.13
2018-03-11T09:37:09.325Z,34.47
2018-03-11T09:39:38.741Z,4.10
2018-03-11T09:42:07.898Z,4.40
2018-03-11T09:44:37.129Z,4.77
2018-03-11T09:47:06.489Z,3.90
2018-03-11T09:49:35.899Z,3.77
2018-03-11T09:52:05.089Z,4.50
2018-03-11T09:54:34.808Z,4.03
2018-03-11T09:57:04.239Z,3.70
2018-03-11T09:59:33.604Z,4.33
2018-03-11T10:02:02.821Z,4.23
2018-03-11T10:04:31.760Z,3.80
2018-03-11T10:07:01.121Z,4.00
2018-03-11T10:09:30.310Z,3.97
2018-03-11T10:11:59.708Z,4.03
2018-03-11T10:14:29.065Z,4.10
2018-03-11T10:16:58.422Z,3.90
2018-03-11T10:19:27.827Z,4.30
2018-03-11T10:21:56.994Z,3.63
2018-03-11T10:24:26.051Z,3.80
2018-03-11T10:26:55.178Z,4.10
2018-03-11T10:29:24.405Z,3.20
2018-03-11T10:31:53.609Z,3.97
2018-03-11T10:34:22.966Z,3.93
2018-03-11T10:36:52.254Z,3.63
2018-03-11T10:39:21.602Z,3.30
2018-03-11T10:41:51.217Z,3.40
2018-03-11T10:44:20.940Z,4.03
2018-03-11T10:46:50.392Z,3.67
2018-03-11T10:49:19.433Z,3.90
2018-03-11T10:51:48.647Z,4.00
2018-03-11T10:54:17.990Z,3.80
2018-03-11T10:56:47.289Z,3.20
2018-03-11T10:59:16.222Z,3.10
2018-03-11T11:01:46.215Z,3.50
2018-03-11T11:04:15.390Z,3.67
2018-03-11T11:06:44.681Z,3.30
2018-03-11T11:09:13.946Z,6.30
2018-03-11T11:11:43.284Z,3.40
2018-03-11T11:14:12.619Z,2.80
2018-03-11T11:16:42.159Z,3.40
2018-03-11T11:19:11.529Z,2.97
2018-03-11T11:21:40.856Z,2.60
2018-03-11T11:24:10.170Z,2.63
2018-03-11T11:26:39.302Z,4.03
2018-03-11T11:29:08.965Z,2.90
2018-03-11T11:31:37.922Z,3.33
2018-03-11T11:34:07.058Z,3.20
2018-03-11T11:36:36.233Z,4.10
2018-03-11T11:39:05.367Z,3.60
2018-03-11T11:41:34.561Z,4.60
2018-03-11T11:44:03.912Z,4.03
2018-03-11T11:46:33.197Z,3.67
2018-03-11T11:49:02.218Z,3.13
2018-03-11T11:51:31.564Z,3.93
2018-03-11T11:54:00.652Z,2.80
2018-03-11T11:56:30.253Z,3.07
2018-03-11T11:58:59.557Z,3.00
2018-03-11T12:01:28.753Z,3.87
2018-03-11T12:03:58.157Z,3.80
2018-03-11T12:06:27.267Z,3.17
2018-03-11T12:08:56.819Z,3.20
2018-03-11T12:11:26.166Z,3.20
2018-03-11T12:13:55.465Z,3.67
2018-03-11T12:16:24.819Z,3.77
2018-03-11T12:18:53.974Z,3.50
2018-03-11T12:21:23.386Z,2.70
2018-03-11T12:23:52.877Z,3.10
2018-03-11T12:26:22.444Z,3.67
2018-03-11T12:28:51.723Z,4.60
2018-03-11T12:31:20.886Z,4.83
2018-03-11T12:33:50.877Z,5.97
2018-03-11T12:36:19.915Z,5.17
2018-03-11T12:38:49.310Z,5.80
2018-03-11T12:41:18.642Z,4.17
2018-03-11T12:43:47.841Z,4.23
2018-03-11T12:46:16.942Z,4.30
2018-03-11T12:48:46.114Z,3.87
2018-03-11T12:51:15.319Z,3.90
2018-03-11T12:53:44.490Z,3.37
2018-03-11T12:56:13.899Z,3.43
2018-03-11T12:58:43.095Z,3.73
2018-03-11T13:01:12.086Z,3.80
2018-03-11T13:03:41.389Z,4.10
2018-03-11T13:06:10.662Z,4.37
2018-03-11T13:08:39.997Z,4.00
2018-03-11T13:11:08.809Z,4.37
2018-03-11T13:13:38.007Z,4.37
2018-03-11T13:16:07.163Z,4.30
2018-03-11T13:18:36.307Z,4.20
2018-03-11T13:21:07.593Z,4.00
2018-03-11T13:23:36.966Z,4.20
2018-03-11T13:26:05.710Z,4.27
2018-03-11T13:28:46.593Z,4.13
2018-03-11T13:31:16.011Z,4.03
2018-03-11T13:33:56.349Z,4.43
2018-03-11T13:36:25.406Z,3.97
2018-03-11T13:39:05.817Z,4.20
2018-03-11T13:41:35.049Z,5.00
2018-03-11T13:44:04.247Z,4.63
2018-03-11T13:46:44.698Z,5.00
2018-03-11T13:49:13.534Z,4.87
2018-03-11T13:51:53.899Z,5.50
2018-03-11T13:54:22.914Z,4.77
2018-03-11T14:00:10.857Z,4.63
2018-03-11T14:02:40.073Z,4.50
2018-03-11T14:05:09.080Z,4.20
2018-03-11T14:07:38.357Z,4.90
2018-03-11T14:10:07.477Z,4.80
2018-03-11T14:12:36.702Z,4.80
2018-03-11T14:15:05.959Z,4.00
2018-03-11T14:17:35.339Z,4.63
2018-03-11T14:20:04.650Z,3.90
2018-03-11T14:22:33.819Z,4.20
2018-03-11T14:25:03.019Z,4.00
2018-03-11T14:27:32.381Z,3.83
2018-03-11T14:30:01.665Z,4.37
2018-03-11T14:32:31.079Z,4.10
2018-03-11T14:35:00.844Z,4.23
2018-03-11T14:37:29.998Z,5.80
2018-03-11T14:39:58.942Z,6.40
2018-03-11T14:42:28.206Z,6.40
2018-03-11T14:44:57.309Z,6.00
2018-03-11T14:47:26.403Z,5.10
2018-03-11T14:49:55.524Z,5.77
2018-03-11T14:52:25.030Z,5.67
2018-03-11T14:54:54.229Z,4.93
2018-03-11T14:57:23.750Z,5.53
2018-03-11T14:59:52.869Z,5.53
2018-03-11T15:02:22.070Z,4.43
2018-03-11T15:04:51.226Z,5.43
2018-03-11T15:07:20.325Z,5.10
2018-03-11T15:09:49.382Z,5.10
2018-03-11T15:12:18.473Z,5.20
2018-03-11T15:14:47.831Z,6.20
2018-03-11T15:17:17.023Z,4.93
2018-03-11T15:19:46.206Z,4.77
2018-03-11T15:22:15.385Z,4.73
2018-03-11T15:24:44.981Z,6.00
2018-03-11T15:27:14.023Z,5.63
2018-03-11T15:29:43.487Z,5.53
2018-03-11T15:32:13.048Z,5.10
2018-03-11T15:34:42.387Z,5.00
2018-03-11T15:37:11.598Z,5.00
2018-03-11T15:39:40.765Z,5.70
2018-03-11T15:42:09.879Z,5.80
2018-03-11T15:44:39.022Z,5.40
2018-03-11T15:49:43.785Z,5.50
2018-03-11T15:52:13.133Z,5.60
2018-03-11T15:54:42.460Z,5.43
2018-03-11T15:57:11.858Z,5.73
2018-03-11T15:59:41.004Z,4.63
2018-03-11T16:02:10.422Z,4.10
2018-03-11T16:04:39.517Z,4.80
2018-03-11T16:07:08.614Z,5.37
2018-03-11T16:09:37.857Z,5.10
2018-03-11T16:12:07.165Z,5.43
2018-03-11T16:14:36.413Z,6.67
2018-03-11T16:17:05.607Z,5.70
2018-03-11T16:19:34.779Z,5.77
2018-03-11T16:22:04.011Z,6.57
2018-03-11T16:24:39.617Z,6.93
2018-03-11T16:27:02.601Z,7.13
2018-03-11T16:29:32.063Z,7.63
2018-03-11T16:32:01.170Z,9.00
2018-03-11T16:34:30.336Z,7.80
2018-03-11T16:36:59.541Z,7.77
2018-03-11T16:39:28.497Z,8.20
2018-03-11T16:41:57.545Z,8.57
2018-03-11T16:44:26.623Z,8.07
2018-03-11T16:46:55.885Z,8.87
2018-03-11T16:49:25.019Z,7.10
2018-03-11T16:51:54.122Z,7.30
2018-03-11T16:54:23.208Z,7.80
2018-03-11T16:56:52.467Z,8.13
2018-03-11T16:59:21.519Z,6.40
2018-03-11T17:01:50.609Z,7.30
2018-03-11T17:04:20.040Z,8.37
2018-03-11T17:06:49.299Z,8.43
2018-03-11T17:09:18.786Z,9.27
2018-03-11T17:11:48.109Z,7.90
2018-03-11T17:14:18.265Z,9.23
2018-03-11T17:16:47.701Z,9.90
2018-03-11T17:19:16.826Z,8.37
2018-03-11T17:21:45.758Z,8.00
2018-03-11T17:24:14.983Z,7.00
2018-03-11T17:26:44.549Z,7.10
2018-03-11T17:29:13.867Z,7.33
2018-03-11T17:31:43.006Z,7.10
2018-03-11T17:34:11.951Z,8.47
2018-03-11T17:36:40.987Z,9.50
2018-03-11T17:39:10.240Z,10.10
2018-03-11T17:41:39.386Z,10.53
2018-03-11T17:44:08.615Z,9.70
2018-03-11T17:46:37.565Z,11.87
2018-03-11T17:49:06.622Z,8.23
2018-03-11T17:51:35.799Z,9.57
2018-03-11T17:54:04.947Z,8.20
2018-03-11T17:56:34.168Z,7.40
2018-03-11T17:59:02.937Z,23.47
2018-03-11T18:01:32.394Z,8.13
2018-03-11T18:04:01.577Z,8.33
2018-03-11T18:06:30.750Z,8.33
2018-03-11T18:09:00.457Z,9.30
2018-03-11T18:11:29.459Z,9.10
2018-03-11T18:13:58.810Z,9.87
2018-03-11T18:16:27.862Z,10.23
2018-03-11T18:18:57.042Z,10.03
2018-03-11T18:21:26.489Z,12.70
2018-03-11T18:23:55.341Z,23.60
2018-03-11T18:26:24.813Z,13.97
2018-03-11T18:28:54.165Z,11.83
2018-03-11T18:31:23.236Z,16.33
2018-03-11T18:33:52.681Z,11.13
2018-03-11T18:36:22.053Z,13.33
2018-03-11T18:38:51.285Z,12.53
2018-03-11T18:41:20.665Z,10.97
2018-03-11T18:43:50.137Z,10.73
2018-03-11T18:46:19.349Z,10.83
2018-03-11T18:48:48.755Z,11.30
2018-03-11T18:51:18.196Z,10.93
2018-03-11T18:53:47.561Z,11.23
2018-03-11T18:56:16.782Z,11.00
2018-03-11T18:58:45.667Z,10.23
2018-03-11T19:01:15.093Z,11.00
2018-03-11T19:03:44.363Z,10.70
2018-03-11T19:06:13.593Z,9.13
2018-03-11T19:08:42.707Z,9.97
2018-03-11T19:11:12.063Z,11.67
2018-03-11T19:13:41.513Z,10.93
2018-03-11T19:16:10.857Z,11.90
2018-03-11T19:18:40.015Z,11.30
2018-03-11T19:21:08.983Z,11.13
2018-03-11T19:23:38.349Z,11.17
2018-03-11T19:26:08.018Z,11.50
2018-03-11T19:28:37.375Z,10.50
2018-03-11T19:31:06.878Z,10.47
2018-03-11T19:33:36.373Z,11.40
2018-03-11T19:36:05.683Z,11.73
2018-03-11T19:38:34.745Z,11.67
2018-03-11T19:41:04.226Z,10.43
2018-03-11T19:43:33.634Z,10.83
2018-03-11T19:46:02.748Z,11.63
2018-03-11T19:48:35.011Z,11.77
2018-03-11T19:51:04.502Z,12.10
2018-03-11T19:53:33.863Z,12.60
2018-03-11T19:56:03.177Z,11.57
2018-03-11T19:58:32.259Z,9.23
2018-03-11T20:01:01.573Z,10.03
2018-03-11T20:03:30.849Z,8.43
2018-03-11T20:06:00.457Z,6.63
2018-03-11T20:08:29.749Z,7.57
2018-03-11T20:10:58.852Z,7.13
2018-03-11T20:13:27.755Z,6.77
2018-03-11T20:15:57.030Z,7.13
2018-03-11T20:18:25.985Z,8.03
2018-03-11T20:20:55.321Z,9.60
2018-03-11T20:23:24.551Z,8.63
2018-03-11T20:25:53.900Z,10.30
2018-03-11T20:28:23.275Z,11.37
2018-03-11T20:30:52.443Z,11.17
2018-03-11T20:33:21.650Z,12.53
2018-03-11T20:35:51.150Z,11.40
2018-03-11T20:38:20.858Z,11.23
2018-03-11T20:40:50.097Z,11.87
2018-03-11T20:43:19.457Z,12.90
2018-03-11T20:45:48.598Z,41.03
2018-03-11T20:48:17.970Z,21.07
2018-03-11T20:50:46.962Z,16.07
2018-03-11T20:53:16.354Z,20.83
2018-03-11T20:55:45.681Z,49.73
2018-03-11T20:58:14.753Z,44.37
2018-03-11T21:00:43.889Z,44.60
2018-03-11T21:03:12.967Z,44.40
2018-03-11T21:05:42.185Z,43.30
2018-03-11T21:08:11.173Z,41.03
2018-03-11T21:10:40.120Z,38.20
2018-03-11T21:13:09.388Z,42.63
2018-03-11T21:15:38.505Z,43.40
2018-03-11T21:18:07.326Z,43.97
2018-03-11T21:20:36.061Z,43.47
2018-03-11T21:23:05.285Z,34.03
2018-03-11T21:25:34.726Z,16.73
2018-03-11T21:28:04.109Z,38.10
2018-03-11T21:30:33.657Z,35.70
2018-03-11T21:33:02.793Z,25.40
2018-03-11T21:35:31.825Z,20.10
2018-03-11T21:38:00.797Z,15.80
2018-03-11T21:40:29.939Z,13.37
2018-03-11T21:42:59.213Z,12.30
2018-03-11T21:45:28.540Z,11.53
2018-03-11T21:47:58.219Z,10.83
2018-03-11T21:50:27.709Z,11.57
2018-03-11T21:52:56.645Z,11.63
2018-03-11T21:55:25.856Z,12.43
2018-03-11T21:57:55.235Z,12.20
2018-03-11T22:00:24.435Z,12.35
2018-03-11T22:02:53.500Z,13.23
2018-03-11T22:05:22.673Z,11.57
2018-03-11T22:07:51.950Z,11.80
2018-03-11T22:10:21.577Z,10.40
2018-03-11T22:12:50.908Z,9.90
2018-03-11T22:15:20.253Z,12.83
2018-03-11T22:17:49.821Z,13.07
2018-03-11T22:20:19.620Z,11.57
2018-03-11T22:22:48.708Z,12.20
2018-03-11T22:25:17.831Z,12.57
2018-03-11T22:27:47.284Z,12.40
2018-03-11T22:30:16.738Z,14.27
2018-03-11T22:32:45.936Z,13.98
2018-03-11T22:35:15.417Z,14.47
2018-03-11T22:37:44.847Z,15.10
2018-03-11T22:40:14.069Z,16.10
2018-03-11T22:42:43.132Z,17.00
2018-03-11T22:45:12.597Z,16.70
2018-03-11T22:47:41.543Z,16.63
2018-03-11T22:50:10.481Z,17.67
2018-03-11T22:52:39.670Z,18.30
2018-03-11T22:55:09.067Z,18.05
2018-03-11T22:57:42.887Z,19.07
2018-03-11T23:00:12.183Z,17.65
2018-03-11T23:02:41.224Z,19.52
2018-03-11T23:05:10.630Z,22.42
2018-03-11T23:07:39.868Z,21.00
2018-03-11T23:10:09.035Z,24.92
2018-03-11T23:12:38.123Z,26.00
2018-03-11T23:15:07.321Z,29.52
2018-03-11T23:17:36.672Z,26.83
2018-03-11T23:20:05.717Z,27.77
2018-03-11T23:22:34.913Z,28.65
2018-03-11T23:25:04.010Z,30.70
2018-03-11T23:27:32.786Z,32.90
2018-03-11T23:30:01.914Z,32.15
2018-03-11T23:32:30.829Z,30.30
2018-03-11T23:34:59.984Z,32.03
2018-03-11T23:37:29.435Z,35.42
2018-03-11T23:39:58.529Z,35.50
2018-03-11T23:42:28.009Z,37.25
2018-03-11T23:44:56.942Z,38.88
2018-03-11T23:47:26.166Z,35.63
2018-03-11T23:49:55.361Z,33.53
2018-03-11T23:52:24.131Z,38.45
2018-03-11T23:54:53.000Z,40.45
2018-03-11T23:57:21.893Z,42.22
2018-03-11T23:59:51.217Z,49.67
